Cudahy, WI (53110)

11:20 PM CST on February 13, 2016 (GMT -0600)
E Layton | | Change Station
CLOSE
Current Station
Personal Weather Station
Location: Cudahy, WI
Elevation: 712 ft
Nearby Weather Stations

Elev 712 ft 42.96 °N, 87.86 °W | Updated 2 seconds ago

Mostly Cloudy
Mostly Cloudy
5.6 °F
Feels Like 6 °F
N
1.0
Wind Variable Wind from WNW
Gusts 1.0 mph

Today
High -- | Low -- °F
--% Chance of Precip.
Yesterday
High -- | Low -- °F
Precip. -- in
Pressure 30.53 in
Visibility 10.0 miles
Clouds Few 20000 ft
Mostly Cloudy 25000 ft
Windchill 6 °F
Dew Point -3 °F
Humidity 68%
Rainfall 0.00 in
Snow Depth Not available.
6:52 AM 5:19 PM
Waxing Crescent, 38% visible
METAR KMKE 140452Z 30003KT 10SM FEW200 BKN250 M14/M21 A3047 RMK AO2 SLP336 T11391206
Pressure 30.53 in
Visibility 10.0 miles
Clouds Few 20000 ft
Mostly Cloudy 25000 ft
Windchill 6 °F
Dew Point -3 °F
Humidity 68%
Rainfall 0.00 in
Snow Depth Not available.
6:52 AM 5:19 PM
Waxing Crescent, 38% visible
METAR KMKE 140452Z 30003KT 10SM FEW200 BKN250 M14/M21 A3047 RMK AO2 SLP336 T11391206

10-Day Weather Forecast

Almanac

Astronomy

Feb. 13, 2016 Rise Set
Actual Time
Civil Twilight
Nautical Twilight
Astronomical Twilight
Moon
Length of Visible Light
Length of Day
Tomorrow will be .
, % of the Moon is Illuminated

Today's Extremes

State Highs State Lows

Community

WunderPhotos

Upload Photos

1,892,748 photos uploaded!

WunderBlog® & News

Nearby

Air Quality

  Air Quality AQ Index Pollutant
Not available.

Snow Depth

Station Depth Elevation

Earthquake Activity

City Distance Mag. Time & Date
Minimum magnitude displayed is 2.5.

Coastal Water Temperatures

Place Temperature

Stations

Nearby Weather Stations

Station Location Temp. Windchill Dew Point Humidity Wind Precip. Elev Updated Type
                   

Watches & Warnings

There are currently no watches in effect.